Terminal Aerodrome Forecast
Issued by NWS Sioux Falls, SD

Home | Current Version | Previous Version | Text Only | Print | Product List | Glossary On
Versions: 1 2 3 4 5 6 7 8 9 10 11 12 13 14
000
FTUS43 KFSD 030659 AAA
TAFHON
TAF AMD
KHON 030659Z 0307/0406 18012KT P6SM BKN150
      TEMPO 0307/0310 VRB15G30KT 6SM TSRA BR BKN060CB
     FM031100 20007KT P6SM BKN040 BKN100
     FM031400 35012KT P6SM SCT040 BKN090
     FM032200 01008KT P6SM SCT050 SCT200=

USA.gov is the U.S. government's official web portal to all federal, state and local government web resources and services.